Pendleton, South Carolina
Current Conditions -  °F | °C
As of 9:54 AM on Saturday 01 Nov 2014 (Local Time) from KCEU Reporting Station
Overcast Overcast  
Wind Chill: 42°   Ceiling: 7500
Heat Index: 47°   Visibility: 10mi
Dew Point: 28°   Wind: 10mph
Humidity: 48%   Direction: 340°NNW
Pressure: 29.85"   Gusts: 21mph
Location:  34.65°N, 82.78°W
Report Text: KCEU 011354Z AUTO 34009G18KT 10SM OVC075 08/M02 A2985 RMK AO2 SLP109 T00831022
Loading
Personal Weather Stations






























Interactive Weather Map New forecast layout! Learn more

10-Day Weather Forecast

Advertisements
Track Severe Weather on mobile